createdAt,value
2017-06-04T00:00:29.485Z,1011.32
2017-06-04T00:01:52.106Z,1011.3
2017-06-04T00:03:14.585Z,1011.26
2017-06-04T00:04:36.758Z,1011.28
2017-06-04T00:05:59.341Z,1011.32
2017-06-04T00:07:20.860Z,1011.28
2017-06-04T00:08:42.708Z,1011.29
2017-06-04T00:10:05.256Z,1011.27
2017-06-04T00:11:28.055Z,1011.27
2017-06-04T00:12:50.544Z,1011.3
2017-06-04T00:14:12.382Z,1011.28
2017-06-04T00:15:34.557Z,1011.26
2017-06-04T00:16:56.760Z,1011.32
2017-06-04T00:18:18.950Z,1011.32
2017-06-04T00:19:41.213Z,1011.33
2017-06-04T00:21:03.773Z,1011.33
2017-06-04T00:22:25.371Z,1011.32
2017-06-04T00:23:47.835Z,1011.31
2017-06-04T00:25:09.725Z,1011.38
2017-06-04T00:26:31.916Z,1011.35
2017-06-04T00:27:54.023Z,1011.35
2017-06-04T00:29:16.170Z,1011.38
2017-06-04T00:30:38.056Z,1011.42
2017-06-04T00:32:00.234Z,1011.42
2017-06-04T00:33:22.422Z,1011.39
2017-06-04T00:34:44.714Z,1011.39
2017-06-04T00:36:05.590Z,1011.4
2017-06-04T00:37:27.777Z,1011.42
2017-06-04T00:38:49.910Z,1011.43
2017-06-04T00:40:11.115Z,1011.45
2017-06-04T00:41:32.940Z,1011.49
2017-06-04T00:42:55.394Z,1011.53
2017-06-04T00:44:17.891Z,1011.49
2017-06-04T00:45:40.249Z,1011.53
2017-06-04T00:47:02.282Z,1011.53
2017-06-04T00:48:24.447Z,1011.55
2017-06-04T00:49:46.617Z,1011.59
2017-06-04T00:51:08.777Z,1011.6
2017-06-04T00:52:30.726Z,1011.64
2017-06-04T00:53:52.879Z,1011.68
2017-06-04T00:55:15.261Z,1011.65
2017-06-04T00:56:37.416Z,1011.62
2017-06-04T00:57:59.895Z,1011.58
2017-06-04T00:59:21.744Z,1011.53
2017-06-04T01:00:43.958Z,1011.52
2017-06-04T01:02:06.444Z,1011.5
2017-06-04T01:03:28.253Z,1011.53
2017-06-04T01:04:50.460Z,1011.55
2017-06-04T01:06:13.284Z,1011.58
2017-06-04T01:07:35.145Z,1011.54
2017-06-04T01:08:57.314Z,1011.51
2017-06-04T01:10:19.154Z,1011.56
2017-06-04T01:11:41.664Z,1011.56
2017-06-04T01:13:02.855Z,1011.56
2017-06-04T01:14:25.101Z,1011.53
2017-06-04T01:15:47.373Z,1011.52
2017-06-04T01:17:09.193Z,1011.58
2017-06-04T01:18:31.024Z,1011.57
2017-06-04T01:19:52.873Z,1011.61
2017-06-04T01:21:15.348Z,1011.59
2017-06-04T01:22:37.801Z,1011.65
2017-06-04T01:23:59.993Z,1011.66
2017-06-04T01:25:21.836Z,1011.67
2017-06-04T01:26:43.987Z,1011.71
2017-06-04T01:28:06.383Z,1011.65
2017-06-04T01:29:27.588Z,1011.68
2017-06-04T01:30:49.504Z,1011.69
2017-06-04T01:32:11.378Z,1011.69
2017-06-04T01:33:33.275Z,1011.73
2017-06-04T01:34:55.414Z,1011.73
2017-06-04T01:36:17.315Z,1011.73
2017-06-04T01:37:39.168Z,1011.71
2017-06-04T01:39:01.604Z,1011.73
2017-06-04T01:40:23.271Z,1011.75
2017-06-04T01:41:44.786Z,1011.78
2017-06-04T01:43:07.254Z,1011.79
2017-06-04T01:44:29.435Z,1011.78
2017-06-04T01:45:51.584Z,1011.75
2017-06-04T01:47:13.105Z,1011.78
2017-06-04T01:48:34.684Z,1011.76
2017-06-04T01:49:57.496Z,1011.78
2017-06-04T01:51:19.313Z,1011.79
2017-06-04T01:52:41.184Z,1011.78
2017-06-04T01:54:03.004Z,1011.69
2017-06-04T01:55:25.393Z,1011.78
2017-06-04T01:56:47.843Z,1011.79
2017-06-04T01:58:09.686Z,1011.75
2017-06-04T01:59:32.221Z,1011.75
2017-06-04T02:00:54.724Z,1011.76
2017-06-04T02:02:16.952Z,1011.81
2017-06-04T02:03:38.768Z,1011.83
2017-06-04T02:05:00.263Z,1011.82
2017-06-04T02:06:22.702Z,1011.83
2017-06-04T02:07:45.153Z,1011.88
2017-06-04T02:09:07.288Z,1011.83
2017-06-04T02:10:29.122Z,1011.88
2017-06-04T02:11:51.884Z,1011.84
2017-06-04T02:13:13.719Z,1011.91
2017-06-04T02:14:36.181Z,1011.88
2017-06-04T02:15:58.026Z,1011.88
2017-06-04T02:17:20.405Z,1011.91
2017-06-04T02:18:42.547Z,1011.91
2017-06-04T02:20:04.659Z,1011.89
2017-06-04T02:21:26.822Z,1011.89
2017-06-04T02:22:48.934Z,1011.92
2017-06-04T02:24:10.431Z,1011.86
2017-06-04T02:25:32.590Z,1011.9
2017-06-04T02:26:54.417Z,1011.9
2017-06-04T02:28:16.613Z,1011.88
2017-06-04T02:29:38.125Z,1011.94
2017-06-04T02:31:00.013Z,1011.87
2017-06-04T02:32:22.067Z,1011.84
2017-06-04T02:33:44.279Z,1011.85
2017-06-04T02:35:05.857Z,1011.86
2017-06-04T02:36:28.014Z,1011.86
2017-06-04T02:37:50.174Z,1011.86
2017-06-04T02:39:12.261Z,1011.88
2017-06-04T02:40:33.770Z,1011.85
2017-06-04T02:41:55.933Z,1011.93
2017-06-04T02:43:17.735Z,1011.96
2017-06-04T02:44:40.413Z,1011.96
2017-06-04T02:46:02.653Z,1011.93
2017-06-04T02:47:24.522Z,1011.95
2017-06-04T02:48:46.992Z,1011.95
2017-06-04T02:50:09.485Z,1012.01
2017-06-04T02:51:31.957Z,1012.03
2017-06-04T02:52:53.461Z,1012
2017-06-04T02:54:14.973Z,1012.01
2017-06-04T02:55:36.794Z,1012.01
2017-06-04T02:56:59.256Z,1012.03
2017-06-04T02:58:21.546Z,1012.04
2017-06-04T02:59:43.365Z,1012.02
2017-06-04T03:01:05.537Z,1012.06
2017-06-04T03:02:27.763Z,1012.06
2017-06-04T03:03:49.933Z,1012.05
2017-06-04T03:05:11.762Z,1012.07
2017-06-04T03:06:34.213Z,1012.08
2017-06-04T03:07:56.685Z,1012.13
2017-06-04T03:09:18.852Z,1012.12
2017-06-04T03:10:40.983Z,1012.11
2017-06-04T03:12:03.053Z,1012.11
2017-06-04T03:13:25.172Z,1012.15
2017-06-04T03:14:46.995Z,1012.13
2017-06-04T03:16:08.482Z,1012.19
2017-06-04T03:17:30.932Z,1012.18
2017-06-04T03:18:53.101Z,1012.19
2017-06-04T03:20:14.943Z,1012.17
2017-06-04T03:21:36.785Z,1012.14
2017-06-04T03:22:59.187Z,1012.15
2017-06-04T03:24:21.324Z,1012.14
2017-06-04T03:25:43.463Z,1012.12
2017-06-04T03:27:05.022Z,1012.17
2017-06-04T03:28:27.213Z,1012.18
2017-06-04T03:29:49.413Z,1012.18
2017-06-04T03:31:11.231Z,1012.16
2017-06-04T03:32:33.049Z,1012.13
2017-06-04T03:33:55.185Z,1012.12
2017-06-04T03:35:17.002Z,1012.11
2017-06-04T03:36:38.506Z,1012.1
2017-06-04T03:38:00.962Z,1012.12
2017-06-04T03:39:22.876Z,1012.07
2017-06-04T03:40:45.023Z,1012.09
2017-06-04T03:42:06.403Z,1012.12
2017-06-04T03:43:28.563Z,1012.11
2017-06-04T03:44:51.285Z,1012.11
2017-06-04T03:46:12.581Z,1012.11
2017-06-04T03:47:34.425Z,1012.12
2017-06-04T03:48:56.573Z,1012.09
2017-06-04T03:50:19.334Z,1012.09
2017-06-04T03:51:41.163Z,1012.14
2017-06-04T03:53:03.323Z,1012.13
2017-06-04T03:54:25.793Z,1012.13
2017-06-04T03:55:47.576Z,1012.12
2017-06-04T03:57:09.705Z,1012.12
2017-06-04T03:58:31.602Z,1012.11
2017-06-04T03:59:53.092Z,1012.15
2017-06-04T04:01:15.330Z,1012.16
2017-06-04T04:02:37.484Z,1012.17
2017-06-04T04:04:00.059Z,1012.13
2017-06-04T04:05:22.212Z,1012.13
2017-06-04T04:06:43.336Z,1012.13
2017-06-04T04:08:05.634Z,1012.14
2017-06-04T04:09:27.474Z,1012.17
2017-06-04T04:10:48.970Z,1012.19
2017-06-04T04:12:11.109Z,1012.14
2017-06-04T04:13:33.243Z,1012.15
2017-06-04T04:14:55.085Z,1012.15
2017-06-04T04:16:16.673Z,1012.15
2017-06-04T04:17:39.114Z,1012.16
2017-06-04T04:19:00.952Z,1012.18
2017-06-04T04:20:22.792Z,1012.17
2017-06-04T04:21:44.568Z,1012.14
2017-06-04T04:23:07.053Z,1012.15
2017-06-04T04:24:28.892Z,1012.14
2017-06-04T04:25:50.413Z,1012.11
2017-06-04T04:27:12.628Z,1012.07
2017-06-04T04:28:35.145Z,1012.1
2017-06-04T04:29:57.284Z,1012.07
2017-06-04T04:31:18.822Z,1012.13
2017-06-04T04:32:40.453Z,1012.07
2017-06-04T04:34:02.917Z,1012.12
2017-06-04T04:35:25.392Z,1012.09
2017-06-04T04:36:47.283Z,1012.14
2017-06-04T04:38:09.153Z,1012.1
2017-06-04T04:39:31.621Z,1012.13
2017-06-04T04:40:53.863Z,1012.13
2017-06-04T04:42:15.696Z,1012.11
2017-06-04T04:43:37.534Z,1012.11
2017-06-04T04:45:00.471Z,1012.08
2017-06-04T04:46:22.617Z,1012.15
2017-06-04T04:47:44.443Z,1012.14
2017-06-04T04:49:05.693Z,1012.16
2017-06-04T04:50:27.884Z,1012.17
2017-06-04T04:51:50.355Z,1012.14
2017-06-04T04:53:12.493Z,1012.15
2017-06-04T04:54:34.964Z,1012.16
2017-06-04T04:55:57.472Z,1012.17
2017-06-04T04:57:19.633Z,1012.16
2017-06-04T04:58:42.163Z,1012.16
2017-06-04T05:00:04.143Z,1012.18
2017-06-04T05:01:25.963Z,1012.13
2017-06-04T05:02:48.131Z,1012.16
2017-06-04T05:04:09.653Z,1012.15
2017-06-04T05:05:32.118Z,1012.16
2017-06-04T05:06:54.352Z,1012.17
2017-06-04T05:08:15.863Z,1012.13
2017-06-04T05:09:38.333Z,1012.16
2017-06-04T05:11:00.160Z,1012.14
2017-06-04T05:12:22.672Z,1012.16
2017-06-04T05:13:44.584Z,1012.21
2017-06-04T05:15:06.163Z,1012.21
2017-06-04T05:16:27.978Z,1012.23
2017-06-04T05:17:50.229Z,1012.28
2017-06-04T05:19:12.379Z,1012.25
2017-06-04T05:20:34.545Z,1012.28
2017-06-04T05:21:56.363Z,1012.29
2017-06-04T05:23:18.463Z,1012.33
2017-06-04T05:24:40.054Z,1012.27
2017-06-04T05:26:02.587Z,1012.26
2017-06-04T05:27:24.432Z,1012.33
2017-06-04T05:28:46.316Z,1012.38
2017-06-04T05:30:08.314Z,1012.39
2017-06-04T05:31:30.181Z,1012.35
2017-06-04T05:32:51.802Z,1012.37
2017-06-04T05:34:14.744Z,1012.37
2017-06-04T05:35:37.225Z,1012.42
2017-06-04T05:36:59.073Z,1012.41
2017-06-04T05:38:20.905Z,1012.45
2017-06-04T05:39:42.783Z,1012.49
2017-06-04T05:41:05.093Z,1012.45
2017-06-04T05:42:27.267Z,1012.46
2017-06-04T05:43:49.414Z,1012.53
2017-06-04T05:45:11.933Z,1012.48
2017-06-04T05:46:33.473Z,1012.48
2017-06-04T05:47:55.393Z,1012.52
2017-06-04T05:49:16.996Z,1012.51
2017-06-04T05:50:38.859Z,1012.56
2017-06-04T05:52:00.999Z,1012.54
2017-06-04T05:53:23.206Z,1012.59
2017-06-04T05:54:45.367Z,1012.58
2017-06-04T05:56:07.188Z,1012.61
2017-06-04T05:57:29.324Z,1012.59
2017-06-04T05:58:51.482Z,1012.59
2017-06-04T06:00:13.323Z,1012.63
2017-06-04T06:01:35.454Z,1012.62
2017-06-04T06:02:57.926Z,1012.69
2017-06-04T06:04:19.447Z,1012.67
2017-06-04T06:05:41.594Z,1012.66
2017-06-04T06:07:04.091Z,1012.71
2017-06-04T06:08:26.363Z,1012.68
2017-06-04T06:09:48.269Z,1012.72
2017-06-04T06:11:10.111Z,1012.76
2017-06-04T06:12:32.816Z,1012.74
2017-06-04T06:13:54.964Z,1012.74
2017-06-04T06:15:17.418Z,1012.81
2017-06-04T06:16:38.935Z,1012.81
2017-06-04T06:18:01.083Z,1012.87
2017-06-04T06:19:23.232Z,1012.84
2017-06-04T06:20:45.074Z,1012.84
2017-06-04T06:22:07.324Z,1012.84
2017-06-04T06:23:29.454Z,1012.87
2017-06-04T06:24:51.606Z,1012.84
2017-06-04T06:26:13.750Z,1012.85
2017-06-04T06:27:35.905Z,1012.95
2017-06-04T06:28:57.470Z,1012.87
2017-06-04T06:30:19.744Z,1012.83
2017-06-04T06:31:41.905Z,1012.86
2017-06-04T06:33:04.424Z,1012.87
2017-06-04T06:34:26.825Z,1012.88
2017-06-04T06:35:49.334Z,1012.9
2017-06-04T06:37:11.194Z,1012.95
2017-06-04T06:38:32.714Z,1012.97
2017-06-04T06:39:55.177Z,1012.96
2017-06-04T06:41:17.048Z,1012.97
2017-06-04T06:42:39.186Z,1012.98
2017-06-04T06:44:01.503Z,1012.97
2017-06-04T06:45:23.889Z,1013.01
2017-06-04T06:46:45.394Z,1013.06
2017-06-04T06:48:07.226Z,1013.04
2017-06-04T06:49:29.084Z,1013.05
2017-06-04T06:50:51.226Z,1013.05
2017-06-04T06:52:13.676Z,1013.08
2017-06-04T06:53:35.233Z,1013.08
2017-06-04T06:54:57.055Z,1013.13
2017-06-04T06:56:19.534Z,1013.12
2017-06-04T06:57:41.374Z,1013.09
2017-06-04T06:59:03.846Z,1013.16
2017-06-04T07:00:25.705Z,1013.21
2017-06-04T07:01:48.203Z,1013.29
2017-06-04T07:03:10.700Z,1013.29
2017-06-04T07:04:32.856Z,1013.25
2017-06-04T07:05:55.042Z,1013.28
2017-06-04T07:07:17.739Z,1013.35
2017-06-04T07:08:39.268Z,1013.39
2017-06-04T07:10:01.485Z,1013.44
2017-06-04T07:11:23.325Z,1013.44
2017-06-04T07:12:46.100Z,1013.39
2017-06-04T07:14:07.926Z,1013.41
2017-06-04T07:15:29.909Z,1013.43
2017-06-04T07:16:52.354Z,1013.45
2017-06-04T07:18:13.792Z,1013.54
2017-06-04T07:19:36.288Z,1013.52
2017-06-04T07:20:57.487Z,1013.51
2017-06-04T07:22:19.315Z,1013.59
2017-06-04T07:23:42.176Z,1013.58
2017-06-04T07:25:04.656Z,1013.61
2017-06-04T07:26:26.866Z,1013.66
2017-06-04T07:27:48.397Z,1013.74
2017-06-04T07:29:10.529Z,1013.78
2017-06-04T07:30:32.994Z,1013.75
2017-06-04T07:31:55.145Z,1013.82
2017-06-04T07:33:16.984Z,1013.88
2017-06-04T07:34:39.387Z,1013.87
2017-06-04T07:36:01.535Z,1013.85
2017-06-04T07:37:24.081Z,1013.88
2017-06-04T07:38:45.594Z,1013.83
2017-06-04T07:40:07.788Z,1013.8
2017-06-04T07:41:29.976Z,1013.82
2017-06-04T07:42:51.833Z,1013.84
2017-06-04T07:44:13.524Z,1013.82
2017-06-04T07:45:35.745Z,1013.8
2017-06-04T07:46:58.238Z,1013.84
2017-06-04T07:48:19.766Z,1013.78
2017-06-04T07:49:42.319Z,1013.8
2017-06-04T07:51:04.739Z,1013.73
2017-06-04T07:52:26.994Z,1013.77
2017-06-04T07:53:48.835Z,1013.8
2017-06-04T07:55:11.007Z,1013.85
2017-06-04T07:56:33.567Z,1013.83
2017-06-04T07:57:56.055Z,1013.88
2017-06-04T07:59:17.940Z,1013.91
2017-06-04T08:00:40.439Z,1013.92
2017-06-04T08:02:02.978Z,1013.93
2017-06-04T08:03:25.273Z,1014
2017-06-04T08:04:47.505Z,1013.96
2017-06-04T08:06:09.660Z,1013.95
2017-06-04T08:07:32.160Z,1013.95
2017-06-04T08:08:54.014Z,1013.98
2017-06-04T08:10:15.895Z,1013.91
2017-06-04T08:11:38.066Z,1013.9
2017-06-04T08:13:00.952Z,1014
2017-06-04T08:14:23.249Z,1013.98
2017-06-04T08:15:45.415Z,1013.98
2017-06-04T08:17:07.295Z,1013.94
2017-06-04T08:18:29.753Z,1013.98
2017-06-04T08:19:51.605Z,1013.97
2017-06-04T08:21:13.587Z,1013.94
2017-06-04T08:22:35.500Z,1013.93
2017-06-04T08:23:57.753Z,1013.94
2017-06-04T08:25:19.946Z,1013.98
2017-06-04T08:26:42.440Z,1014.01
2017-06-04T08:28:04.610Z,1014.03
2017-06-04T08:29:27.138Z,1014.07
2017-06-04T08:30:49.337Z,1014.11
2017-06-04T08:32:11.894Z,1014.12
2017-06-04T08:33:33.731Z,1014.16
2017-06-04T08:34:56.707Z,1014.19
2017-06-04T08:36:19.174Z,1014.2
2017-06-04T08:37:41.052Z,1014.19
2017-06-04T08:39:03.221Z,1014.26
2017-06-04T08:40:25.354Z,1014.2
2017-06-04T08:41:47.211Z,1014.17
2017-06-04T08:43:09.696Z,1014.2
2017-06-04T08:44:32.191Z,1014.18
2017-06-04T08:45:54.592Z,1014.09
2017-06-04T08:47:16.795Z,1014.13
2017-06-04T08:48:38.940Z,1014.14
2017-06-04T08:50:01.094Z,1014.12
2017-06-04T08:51:23.819Z,1014.12
2017-06-04T08:52:45.674Z,1014.05
2017-06-04T08:54:07.834Z,1014.06
2017-06-04T08:55:30.094Z,1013.99
2017-06-04T08:56:51.968Z,1014.05
2017-06-04T08:58:14.117Z,1014.06
2017-06-04T08:59:36.297Z,1014.02
2017-06-04T09:00:58.462Z,1013.97
2017-06-04T09:02:20.294Z,1014.02
2017-06-04T09:03:42.778Z,1014.01
2017-06-04T09:05:05.028Z,1014.04
2017-06-04T09:06:27.532Z,1014.09
2017-06-04T09:07:49.737Z,1014.17
2017-06-04T09:09:12.257Z,1014.08
2017-06-04T09:10:34.436Z,1014.12
2017-06-04T09:11:57.034Z,1014.03
2017-06-04T09:13:19.226Z,1014.06
2017-06-04T09:14:41.419Z,1014.13
2017-06-04T09:16:03.271Z,1014.19
2017-06-04T09:17:25.775Z,1014.31
2017-06-04T09:18:48.381Z,1014.27
2017-06-04T09:20:10.525Z,1014.27
2017-06-04T09:21:32.362Z,1014.27
2017-06-04T09:22:54.544Z,1014.32
2017-06-04T09:24:17.056Z,1014.26
2017-06-04T09:25:39.219Z,1014.25
2017-06-04T09:27:01.722Z,1014.19
2017-06-04T09:28:23.896Z,1014.15
2017-06-04T09:29:46.696Z,1014.16
2017-06-04T09:31:09.201Z,1014.2
2017-06-04T09:32:31.685Z,1014.17
2017-06-04T09:33:53.295Z,1014.22
2017-06-04T09:35:16.019Z,1014.33
2017-06-04T09:36:38.246Z,1014.36
2017-06-04T09:38:00.393Z,1014.32
2017-06-04T09:39:22.573Z,1014.41
2017-06-04T09:40:45.055Z,1014.36
2017-06-04T09:42:07.576Z,1014.29
2017-06-04T09:43:30.173Z,1014.37
2017-06-04T09:44:52.758Z,1014.28
2017-06-04T09:46:15.556Z,1014.29
2017-06-04T09:47:37.494Z,1014.28
2017-06-04T09:48:59.673Z,1014.32
2017-06-04T09:50:22.443Z,1014.32
2017-06-04T09:51:44.229Z,1014.28
2017-06-04T09:53:06.092Z,1014.35
2017-06-04T09:54:28.084Z,1014.25
2017-06-04T09:55:50.246Z,1014.27
2017-06-04T09:57:12.837Z,1014.31
2017-06-04T09:58:35.010Z,1014.22
2017-06-04T09:59:57.595Z,1014.26
2017-06-04T10:01:19.764Z,1014.3
2017-06-04T10:02:42.100Z,1014.45
2017-06-04T10:04:04.634Z,1014.52
2017-06-04T10:05:26.905Z,1014.42
2017-06-04T10:06:48.433Z,1014.43
2017-06-04T10:08:11.291Z,1014.3
2017-06-04T10:09:33.535Z,1014.37
2017-06-04T10:10:55.386Z,1014.39
2017-06-04T10:12:17.562Z,1014.3
2017-06-04T10:13:39.655Z,1014.32
2017-06-04T10:15:02.171Z,1014.32
2017-06-04T10:16:24.134Z,1014.36
2017-06-04T10:17:45.986Z,1014.33
2017-06-04T10:19:08.203Z,1014.49
2017-06-04T10:20:30.378Z,1014.44
2017-06-04T10:21:52.765Z,1014.34
2017-06-04T10:23:15.268Z,1014.35
2017-06-04T10:24:37.981Z,1014.44
2017-06-04T10:25:59.509Z,1014.37
2017-06-04T10:27:21.855Z,1014.44
2017-06-04T10:28:44.340Z,1014.46
2017-06-04T10:30:07.111Z,1014.5
2017-06-04T10:31:29.370Z,1014.61
2017-06-04T10:32:51.593Z,1014.58
2017-06-04T10:34:13.764Z,1014.55
2017-06-04T10:35:36.225Z,1014.51
2017-06-04T10:36:58.079Z,1014.57
2017-06-04T10:38:20.242Z,1014.47
2017-06-04T10:39:42.432Z,1014.42
2017-06-04T10:41:05.283Z,1014.34
2017-06-04T10:42:27.194Z,1014.41
2017-06-04T10:43:49.744Z,1014.36
2017-06-04T10:45:11.915Z,1014.36
2017-06-04T10:46:34.367Z,1014.33
2017-06-04T10:47:56.854Z,1014.32
2017-06-04T10:49:19.392Z,1014.47
2017-06-04T10:50:41.914Z,1014.45
2017-06-04T10:52:04.073Z,1014.36
2017-06-04T10:53:25.592Z,1014.42
2017-06-04T10:54:47.133Z,1014.42
2017-06-04T10:56:09.622Z,1014.36
2017-06-04T10:57:31.722Z,1014.5
2017-06-04T10:58:53.889Z,1014.55
2017-06-04T11:00:16.128Z,1014.5
2017-06-04T11:01:38.039Z,1014.57
2017-06-04T11:03:00.520Z,1014.51
2017-06-04T11:04:23.080Z,1014.44
2017-06-04T11:05:44.976Z,1014.53
2017-06-04T11:07:07.135Z,1014.51
2017-06-04T11:08:29.372Z,1014.52
2017-06-04T11:09:51.866Z,1014.55
2017-06-04T11:11:14.352Z,1014.52
2017-06-04T11:12:36.915Z,1014.4
2017-06-04T11:13:59.391Z,1014.53
2017-06-04T11:15:21.232Z,1014.63
2017-06-04T11:16:42.796Z,1014.55
2017-06-04T11:18:04.343Z,1014.54
2017-06-04T11:19:27.285Z,1014.48
2017-06-04T11:20:49.782Z,1014.48
2017-06-04T11:22:11.648Z,1014.52
2017-06-04T11:23:33.176Z,1014.53
2017-06-04T11:24:56.052Z,1014.55
2017-06-04T11:26:18.382Z,1014.52
2017-06-04T11:27:40.547Z,1014.56
2017-06-04T11:29:03.113Z,1014.49
2017-06-04T11:30:26.060Z,1014.52
2017-06-04T11:31:47.903Z,1014.56
2017-06-04T11:33:10.107Z,1014.56
2017-06-04T11:34:32.270Z,1014.56
2017-06-04T11:35:54.839Z,1014.54
2017-06-04T11:37:17.010Z,1014.58
2017-06-04T11:38:38.853Z,1014.63
2017-06-04T11:40:00.724Z,1014.63
2017-06-04T11:41:23.051Z,1014.74
2017-06-04T11:42:45.222Z,1014.76
2017-06-04T11:44:07.395Z,1014.69
2017-06-04T11:45:29.876Z,1014.65
2017-06-04T11:46:52.735Z,1014.64
2017-06-04T11:48:15.234Z,1014.61
2017-06-04T11:49:37.415Z,1014.57
2017-06-04T11:50:59.588Z,1014.56
2017-06-04T11:52:22.424Z,1014.5
2017-06-04T11:53:44.012Z,1014.58
2017-06-04T11:55:06.594Z,1014.64
2017-06-04T11:56:29.185Z,1014.67
2017-06-04T11:57:51.677Z,1014.73
2017-06-04T11:59:13.610Z,1014.64
2017-06-04T12:00:35.538Z,1014.62
2017-06-04T12:01:58.070Z,1014.68
2017-06-04T12:03:20.237Z,1014.58
2017-06-04T12:04:42.710Z,1014.48
2017-06-04T12:06:04.661Z,1014.59
2017-06-04T12:07:26.611Z,1014.6
2017-06-04T12:08:49.414Z,1014.56
2017-06-04T12:10:11.643Z,1014.69
2017-06-04T12:11:33.192Z,1014.74
2017-06-04T12:12:55.360Z,1014.79
2017-06-04T12:14:17.788Z,1014.62
2017-06-04T12:15:40.061Z,1014.63
2017-06-04T12:17:02.272Z,1014.68
2017-06-04T12:18:24.121Z,1014.64
2017-06-04T12:19:46.231Z,1014.58
2017-06-04T12:21:08.081Z,1014.61
2017-06-04T12:22:30.256Z,1014.63
2017-06-04T12:23:52.130Z,1014.64
2017-06-04T12:25:14.559Z,1014.62
2017-06-04T12:26:37.039Z,1014.56
2017-06-04T12:27:59.513Z,1014.62
2017-06-04T12:29:21.395Z,1014.7
2017-06-04T12:30:43.499Z,1014.71
2017-06-04T12:32:06.021Z,1014.62
2017-06-04T12:33:28.201Z,1014.63
2017-06-04T12:34:50.439Z,1014.61
2017-06-04T12:36:13.219Z,1014.63
2017-06-04T12:37:35.077Z,1014.6
2017-06-04T12:38:57.590Z,1014.67
2017-06-04T12:40:19.809Z,1014.69
2017-06-04T12:41:42.352Z,1014.63
2017-06-04T12:43:04.206Z,1014.59
2017-06-04T12:44:26.680Z,1014.62
2017-06-04T12:45:48.882Z,1014.81
2017-06-04T12:47:11.407Z,1014.9
2017-06-04T12:48:33.906Z,1014.8
2017-06-04T12:49:56.070Z,1014.87
2017-06-04T12:51:18.308Z,1014.93
2017-06-04T12:52:41.098Z,1014.87
2017-06-04T12:54:03.265Z,1014.85
2017-06-04T12:55:25.423Z,1014.84
2017-06-04T12:56:47.923Z,1014.78
2017-06-04T12:58:10.186Z,1014.82
2017-06-04T12:59:32.355Z,1014.85
2017-06-04T13:00:54.200Z,1014.77
2017-06-04T13:02:16.060Z,1014.73
2017-06-04T13:03:38.901Z,1014.72
2017-06-04T13:05:01.051Z,1014.75
2017-06-04T13:06:23.234Z,1014.75
2017-06-04T13:07:45.408Z,1014.72
2017-06-04T13:09:07.825Z,1014.79
2017-06-04T13:10:30.017Z,1014.76
2017-06-04T13:11:52.522Z,1014.71
2017-06-04T13:13:14.721Z,1014.78
2017-06-04T13:14:36.866Z,1014.73
2017-06-04T13:15:59.021Z,1014.78
2017-06-04T13:17:21.193Z,1014.8
2017-06-04T13:18:43.043Z,1014.8
2017-06-04T13:20:05.842Z,1014.82
2017-06-04T13:21:28.032Z,1014.87
2017-06-04T13:22:50.198Z,1014.87
2017-06-04T13:24:12.378Z,1014.9
2017-06-04T13:25:34.822Z,1014.82
2017-06-04T13:26:56.680Z,1014.8
2017-06-04T13:28:19.170Z,1014.81
2017-06-04T13:29:41.636Z,1014.74
2017-06-04T13:31:04.133Z,1014.71
2017-06-04T13:32:26.302Z,1014.73
2017-06-04T13:33:48.815Z,1014.68
2017-06-04T13:35:11.312Z,1014.72
2017-06-04T13:36:33.551Z,1014.66
2017-06-04T13:37:56.049Z,1014.59
2017-06-04T13:39:18.233Z,1014.64
2017-06-04T13:40:40.723Z,1014.66
2017-06-04T13:42:03.124Z,1014.71
2017-06-04T13:43:25.353Z,1014.68
2017-06-04T13:44:47.833Z,1014.7
2017-06-04T13:46:10.330Z,1014.78
2017-06-04T13:47:33.106Z,1014.81
2017-06-04T13:48:54.994Z,1014.75
2017-06-04T13:50:17.153Z,1014.7
2017-06-04T13:51:39.388Z,1014.73
2017-06-04T13:53:01.850Z,1014.71
2017-06-04T13:54:23.056Z,1014.69
2017-06-04T13:55:45.614Z,1014.71
2017-06-04T13:57:07.466Z,1014.73
2017-06-04T13:58:30.342Z,1014.72
2017-06-04T13:59:52.189Z,1014.71
2017-06-04T14:01:14.052Z,1014.73
2017-06-04T14:02:35.891Z,1014.71
2017-06-04T14:03:57.792Z,1014.79
2017-06-04T14:05:19.328Z,1014.87
2017-06-04T14:06:41.813Z,1014.89
2017-06-04T14:08:04.010Z,1014.91
2017-06-04T14:09:26.410Z,1014.81
2017-06-04T14:10:48.582Z,1014.85
2017-06-04T14:12:11.070Z,1014.83
2017-06-04T14:13:33.264Z,1014.86
2017-06-04T14:14:55.423Z,1014.89
2017-06-04T14:16:17.622Z,1014.85
2017-06-04T14:17:39.462Z,1014.85
2017-06-04T14:19:01.645Z,1014.83
2017-06-04T14:20:24.142Z,1014.85
2017-06-04T14:21:46.633Z,1014.86
2017-06-04T14:23:09.205Z,1014.87
2017-06-04T14:24:31.709Z,1014.8
2017-06-04T14:25:53.484Z,1014.78
2017-06-04T14:27:15.324Z,1014.78
2017-06-04T14:28:37.517Z,1014.84
2017-06-04T14:29:59.048Z,1014.8
2017-06-04T14:31:21.852Z,1014.83
2017-06-04T14:32:43.709Z,1014.72
2017-06-04T14:34:05.574Z,1014.79
2017-06-04T14:35:27.438Z,1014.78
2017-06-04T14:36:50.193Z,1014.74
2017-06-04T14:38:12.790Z,1014.7
2017-06-04T14:39:34.675Z,1014.74
2017-06-04T14:40:57.180Z,1014.81
2017-06-04T14:42:19.521Z,1014.8
2017-06-04T14:43:41.383Z,1014.81
2017-06-04T14:45:03.653Z,1014.7
2017-06-04T14:46:26.211Z,1014.78
2017-06-04T14:47:47.998Z,1014.76
2017-06-04T14:49:09.851Z,1014.79
2017-06-04T14:50:32.206Z,1014.69
2017-06-04T14:51:54.789Z,1014.71
2017-06-04T14:53:17.563Z,1014.78
2017-06-04T14:54:40.173Z,1014.71
2017-06-04T14:56:02.661Z,1014.73
2017-06-04T14:57:24.846Z,1014.69
2017-06-04T14:58:47.616Z,1014.72
2017-06-04T15:00:09.943Z,1014.73
2017-06-04T15:01:32.123Z,1014.77
2017-06-04T15:02:54.332Z,1014.74
2017-06-04T15:04:16.923Z,1014.71
2017-06-04T15:05:39.197Z,1014.7
2017-06-04T15:07:01.692Z,1014.68
2017-06-04T15:08:23.865Z,1014.71
2017-06-04T15:09:47.033Z,1014.78
2017-06-04T15:11:09.313Z,1014.77
2017-06-04T15:12:31.482Z,1014.8
2017-06-04T15:13:53.332Z,1014.84
2017-06-04T15:15:16.164Z,1014.85
2017-06-04T15:16:38.359Z,1014.84
2017-06-04T15:18:00.583Z,1014.85
2017-06-04T15:19:22.733Z,1014.86
2017-06-04T15:20:45.233Z,1014.9
2017-06-04T15:22:07.086Z,1014.9
2017-06-04T15:23:29.318Z,1014.91
2017-06-04T15:24:51.817Z,1014.93
2017-06-04T15:26:14.312Z,1014.98
2017-06-04T15:27:36.788Z,1014.92
2017-06-04T15:28:58.987Z,1014.89
2017-06-04T15:30:20.666Z,1014.92
2017-06-04T15:31:43.036Z,1014.92
2017-06-04T15:33:05.278Z,1014.9
2017-06-04T15:34:27.434Z,1014.9
2017-06-04T15:35:50.022Z,1014.91
2017-06-04T15:37:12.390Z,1014.99
2017-06-04T15:38:34.316Z,1015.06
2017-06-04T15:39:56.203Z,1015.05
2017-06-04T15:41:18.685Z,1015.04
2017-06-04T15:42:41.236Z,1015.04
2017-06-04T15:44:03.093Z,1015.11
2017-06-04T15:45:25.272Z,1015.09
2017-06-04T15:46:47.161Z,1015.21
2017-06-04T15:48:09.321Z,1015.25
2017-06-04T15:49:31.484Z,1015.24
2017-06-04T15:50:53.655Z,1015.29
2017-06-04T15:52:16.155Z,1015.29
2017-06-04T15:53:38.932Z,1015.35
2017-06-04T15:55:01.441Z,1015.33
2017-06-04T15:56:23.594Z,1015.37
2017-06-04T15:57:45.442Z,1015.41
2017-06-04T15:59:07.966Z,1015.39
2017-06-04T16:00:29.816Z,1015.36
2017-06-04T16:01:52.434Z,1015.28
2017-06-04T16:03:14.592Z,1015.32
2017-06-04T16:04:37.692Z,1015.31
2017-06-04T16:05:59.857Z,1015.27
2017-06-04T16:07:21.746Z,1015.28
2017-06-04T16:08:43.887Z,1015.27
2017-06-04T16:10:06.746Z,1015.28
2017-06-04T16:11:28.913Z,1015.35
2017-06-04T16:12:51.410Z,1015.3
2017-06-04T16:14:13.872Z,1015.31
2017-06-04T16:15:36.320Z,1015.35
2017-06-04T16:16:58.138Z,1015.25
2017-06-04T16:18:19.997Z,1015.3
2017-06-04T16:19:42.170Z,1015.29
2017-06-04T16:21:04.934Z,1015.39
2017-06-04T16:22:27.532Z,1015.32
2017-06-04T16:23:50.107Z,1015.39
2017-06-04T16:25:11.641Z,1015.37
2017-06-04T16:26:34.302Z,1015.38
2017-06-04T16:27:56.783Z,1015.37
2017-06-04T16:29:18.970Z,1015.37
2017-06-04T16:30:41.166Z,1015.42
2017-06-04T16:32:03.654Z,1015.38
2017-06-04T16:33:26.153Z,1015.44
2017-06-04T16:34:48.026Z,1015.47
2017-06-04T16:36:10.213Z,1015.51